sensor_id;sensor_type;location;lat;lon;timestamp;P1;durP1;ratioP1;P2;durP2;ratioP2
66609;SDS011;53468;48.276;14.416;2024-01-15T00:44:44;46.05;;;19.35;;
66609;SDS011;53468;48.276;14.416;2024-01-15T02:39:28;37.58;;;16.05;;
66609;SDS011;53468;48.276;14.416;2024-01-15T02:51:23;41.17;;;16.67;;
66609;SDS011;53468;48.276;14.416;2024-01-15T04:27:34;42.90;;;18.13;;
66609;SDS011;53468;48.276;14.416;2024-01-15T04:33:56;29.95;;;14.60;;
66609;SDS011;53468;48.276;14.416;2024-01-15T04:40:14;40.03;;;15.38;;
66609;SDS011;53468;48.276;14.416;2024-01-15T08:40:48;23.58;;;11.65;;
66609;SDS011;53468;48.276;14.416;2024-01-15T08:46:48;24.13;;;10.75;;
66609;SDS011;53468;48.276;14.416;2024-01-15T08:52:37;25.15;;;12.73;;
66609;SDS011;53468;48.276;14.416;2024-01-15T09:40:00;17.88;;;9.48;;
66609;SDS011;53468;48.276;14.416;2024-01-15T09:52:05;22.73;;;10.82;;
66609;SDS011;53468;48.276;14.416;2024-01-15T10:03:18;25.35;;;10.00;;
66609;SDS011;53468;48.276;14.416;2024-01-15T10:08:42;25.45;;;11.02;;
66609;SDS011;53468;48.276;14.416;2024-01-15T10:14:07;22.13;;;12.50;;
66609;SDS011;53468;48.276;14.416;2024-01-15T10:19:22;20.00;;;10.88;;
66609;SDS011;53468;48.276;14.416;2024-01-15T10:25:10;20.25;;;11.50;;
66609;SDS011;53468;48.276;14.416;2024-01-15T10:30:40;23.10;;;12.18;;
66609;SDS011;53468;48.276;14.416;2024-01-15T10:36:06;24.48;;;12.20;;
66609;SDS011;53468;48.276;14.416;2024-01-15T10:41:34;25.25;;;12.68;;
66609;SDS011;53468;48.276;14.416;2024-01-15T10:47:07;43.00;;;13.65;;
66609;SDS011;53468;48.276;14.416;2024-01-15T10:52:21;26.92;;;13.93;;
66609;SDS011;53468;48.276;14.416;2024-01-15T10:57:53;22.83;;;11.13;;
66609;SDS011;53468;48.276;14.416;2024-01-15T11:15:19;17.15;;;8.60;;
66609;SDS011;53468;48.276;14.416;2024-01-15T11:50:39;11.90;;;6.43;;
66609;SDS011;53468;48.276;14.416;2024-01-15T11:56:11;15.05;;;7.07;;
66609;SDS011;53468;48.276;14.416;2024-01-15T12:01:48;11.60;;;5.93;;
66609;SDS011;53468;48.276;14.416;2024-01-15T12:07:38;8.43;;;5.00;;
66609;SDS011;53468;48.276;14.416;2024-01-15T12:13:13;11.13;;;4.78;;
66609;SDS011;53468;48.276;14.416;2024-01-15T12:19:11;8.23;;;3.88;;
66609;SDS011;53468;48.276;14.416;2024-01-15T12:36:47;4.85;;;3.33;;
66609;SDS011;53468;48.276;14.416;2024-01-15T12:42:30;5.95;;;2.67;;
66609;SDS011;53468;48.276;14.416;2024-01-15T12:48:13;6.78;;;2.60;;
66609;SDS011;53468;48.276;14.416;2024-01-15T12:53:27;5.57;;;2.47;;
66609;SDS011;53468;48.276;14.416;2024-01-15T12:59:10;6.07;;;2.75;;
66609;SDS011;53468;48.276;14.416;2024-01-15T13:35:20;4.45;;;2.58;;
66609;SDS011;53468;48.276;14.416;2024-01-15T13:40:43;4.30;;;2.20;;
66609;SDS011;53468;48.276;14.416;2024-01-15T13:51:52;6.85;;;2.35;;
66609;SDS011;53468;48.276;14.416;2024-01-15T13:57:48;5.03;;;2.22;;
66609;SDS011;53468;48.276;14.416;2024-01-15T14:03:13;4.28;;;2.05;;
66609;SDS011;53468;48.276;14.416;2024-01-15T14:13:59;3.08;;;1.90;;
66609;SDS011;53468;48.276;14.416;2024-01-15T14:36:37;2.75;;;1.67;;
66609;SDS011;53468;48.276;14.416;2024-01-15T14:53:48;2.40;;;1.80;;
66609;SDS011;53468;48.276;14.416;2024-01-15T14:59:05;3.13;;;1.77;;
66609;SDS011;53468;48.276;14.416;2024-01-15T15:21:34;4.63;;;2.40;;
66609;SDS011;53468;48.276;14.416;2024-01-15T15:26:59;5.10;;;2.03;;
66609;SDS011;53468;48.276;14.416;2024-01-15T15:38:21;5.38;;;2.33;;
66609;SDS011;53468;48.276;14.416;2024-01-15T15:43:57;4.18;;;1.85;;
66609;SDS011;53468;48.276;14.416;2024-01-15T15:49:08;4.35;;;1.85;;
66609;SDS011;53468;48.276;14.416;2024-01-15T15:54:43;3.65;;;2.13;;
66609;SDS011;53468;48.276;14.416;2024-01-15T16:06:21;7.45;;;2.03;;
66609;SDS011;53468;48.276;14.416;2024-01-15T16:12:02;6.80;;;2.13;;
66609;SDS011;53468;48.276;14.416;2024-01-15T16:17:32;5.38;;;1.60;;
66609;SDS011;53468;48.276;14.416;2024-01-15T16:22:53;3.53;;;1.88;;
66609;SDS011;53468;48.276;14.416;2024-01-15T16:28:41;3.92;;;1.90;;
66609;SDS011;53468;48.276;14.416;2024-01-15T16:33:58;6.60;;;2.05;;
66609;SDS011;53468;48.276;14.416;2024-01-15T16:39:49;4.53;;;2.20;;
66609;SDS011;53468;48.276;14.416;2024-01-15T16:45:38;4.70;;;2.33;;
66609;SDS011;53468;48.276;14.416;2024-01-15T16:51:09;4.25;;;2.55;;
66609;SDS011;53468;48.276;14.416;2024-01-15T16:56:34;3.42;;;1.98;;
66609;SDS011;53468;48.276;14.416;2024-01-15T17:02:27;7.30;;;3.50;;
66609;SDS011;53468;48.276;14.416;2024-01-15T17:07:47;4.97;;;2.03;;
66609;SDS011;53468;48.276;14.416;2024-01-15T17:13:16;6.30;;;3.07;;
66609;SDS011;53468;48.276;14.416;2024-01-15T17:19:01;7.05;;;2.75;;
66609;SDS011;53468;48.276;14.416;2024-01-15T17:24:55;6.03;;;2.95;;
66609;SDS011;53468;48.276;14.416;2024-01-15T17:30:14;8.13;;;3.53;;
66609;SDS011;53468;48.276;14.416;2024-01-15T17:35:52;7.47;;;3.25;;
66609;SDS011;53468;48.276;14.416;2024-01-15T17:41:03;6.68;;;3.58;;
66609;SDS011;53468;48.276;14.416;2024-01-15T17:46:15;6.88;;;3.75;;
66609;SDS011;53468;48.276;14.416;2024-01-15T17:51:48;6.38;;;3.60;;
66609;SDS011;53468;48.276;14.416;2024-01-15T17:57:22;8.25;;;3.90;;
66609;SDS011;53468;48.276;14.416;2024-01-15T18:02:53;7.18;;;3.58;;
66609;SDS011;53468;48.276;14.416;2024-01-15T18:08:14;8.07;;;3.70;;
66609;SDS011;53468;48.276;14.416;2024-01-15T18:13:27;6.45;;;4.07;;
66609;SDS011;53468;48.276;14.416;2024-01-15T18:18:48;6.72;;;3.47;;
66609;SDS011;53468;48.276;14.416;2024-01-15T18:24:24;7.43;;;3.85;;
66609;SDS011;53468;48.276;14.416;2024-01-15T18:29:35;5.85;;;3.80;;
66609;SDS011;53468;48.276;14.416;2024-01-15T18:34:50;7.07;;;3.65;;
66609;SDS011;53468;48.276;14.416;2024-01-15T18:51:54;13.18;;;5.38;;
66609;SDS011;53468;48.276;14.416;2024-01-15T18:57:18;11.50;;;4.60;;
66609;SDS011;53468;48.276;14.416;2024-01-15T19:03:08;11.32;;;5.78;;
66609;SDS011;53468;48.276;14.416;2024-01-15T19:08:38;14.60;;;7.07;;
66609;SDS011;53468;48.276;14.416;2024-01-15T19:14:22;12.80;;;7.43;;
66609;SDS011;53468;48.276;14.416;2024-01-15T19:19:49;8.05;;;5.28;;
66609;SDS011;53468;48.276;14.416;2024-01-15T19:31:42;9.65;;;4.85;;
66609;SDS011;53468;48.276;14.416;2024-01-15T19:37:09;12.02;;;5.45;;
66609;SDS011;53468;48.276;14.416;2024-01-15T19:42:47;6.95;;;3.70;;
66609;SDS011;53468;48.276;14.416;2024-01-15T20:00:08;7.65;;;2.67;;
66609;SDS011;53468;48.276;14.416;2024-01-15T20:05:39;8.98;;;3.10;;
66609;SDS011;53468;48.276;14.416;2024-01-15T20:23:42;7.65;;;2.90;;
66609;SDS011;53468;48.276;14.416;2024-01-15T20:29:29;8.15;;;3.97;;
66609;SDS011;53468;48.276;14.416;2024-01-15T20:40:27;8.27;;;4.28;;
66609;SDS011;53468;48.276;14.416;2024-01-15T20:46:03;8.52;;;4.40;;
66609;SDS011;53468;48.276;14.416;2024-01-15T20:51:24;7.68;;;4.40;;
66609;SDS011;53468;48.276;14.416;2024-01-15T20:56:46;7.20;;;3.50;;
66609;SDS011;53468;48.276;14.416;2024-01-15T21:02:02;5.85;;;3.88;;
66609;SDS011;53468;48.276;14.416;2024-01-15T21:07:23;6.72;;;3.95;;
66609;SDS011;53468;48.276;14.416;2024-01-15T21:13:03;6.82;;;3.90;;
66609;SDS011;53468;48.276;14.416;2024-01-15T21:18:41;8.25;;;4.68;;
66609;SDS011;53468;48.276;14.416;2024-01-15T21:24:16;11.02;;;5.22;;
66609;SDS011;53468;48.276;14.416;2024-01-15T21:35:23;7.93;;;4.28;;
66609;SDS011;53468;48.276;14.416;2024-01-15T21:41:08;6.00;;;4.18;;
66609;SDS011;53468;48.276;14.416;2024-01-15T21:58:50;5.55;;;3.35;;
66609;SDS011;53468;48.276;14.416;2024-01-15T22:10:02;6.32;;;3.85;;
66609;SDS011;53468;48.276;14.416;2024-01-15T22:15:30;7.57;;;4.35;;
66609;SDS011;53468;48.276;14.416;2024-01-15T22:20:52;8.55;;;3.63;;
66609;SDS011;53468;48.276;14.416;2024-01-15T22:38:02;11.10;;;4.43;;
66609;SDS011;53468;48.276;14.416;2024-01-15T22:43:31;7.68;;;3.50;;
66609;SDS011;53468;48.276;14.416;2024-01-15T23:00:36;27.90;;;9.77;;
66609;SDS011;53468;48.276;14.416;2024-01-15T23:11:51;21.83;;;8.65;;
